Time,TemperatureF,DewpointF,PressureIn,WindDirection,WindDirectionDegrees,WindSpeedMPH,WindSpeedGustMPH,Humidity,HourlyPrecipIn,Conditions,Clouds,dailyrainin,SoftwareType,DateUTC
2013-02-02 00:18:00,34.7,28.0,30.46,NNE,18,0.0,1.0,77,0.00,,,0.00,weatherlink.com 1.10,2013-02-02 08:18:00,
2013-02-02 00:33:00,32.9,27.0,30.47,NNE,18,0.0,0.0,80,0.00,,,0.00,weatherlink.com 1.10,2013-02-02 08:33:00,
2013-02-02 00:48:00,31.0,26.0,30.47,SE,143,0.0,2.0,83,0.00,,,0.00,weatherlink.com 1.10,2013-02-02 08:48:00,
2013-02-02 01:03:00,31.9,27.0,30.47,NE,50,0.0,2.0,83,0.00,,,0.00,weatherlink.com 1.10,2013-02-02 09:03:00,
2013-02-02 01:18:00,32.7,28.0,30.47,SE,134,0.0,0.0,84,0.00,,,0.00,weatherlink.com 1.10,2013-02-02 09:18:00,
2013-02-02 01:33:00,34.4,29.0,30.47,WSW,246,0.0,1.0,81,0.00,,,0.00,weatherlink.com 1.10,2013-02-02 09:33:00,
2013-02-02 01:48:00,35.2,30.0,30.48,NW,326,0.0,2.0,80,0.00,,,0.00,weatherlink.com 1.10,2013-02-02 09:48:00,
2013-02-02 02:03:00,35.4,30.0,30.48,South,190,0.0,1.0,80,0.00,,,0.00,weatherlink.com 1.10,2013-02-02 10:03:00,
2013-02-02 02:18:00,35.6,30.0,30.48,SW,231,0.0,2.0,81,0.00,,,0.00,weatherlink.com 1.10,2013-02-02 10:18:00,
2013-02-02 02:33:00,35.1,30.0,30.48,SW,226,1.0,1.0,82,0.00,,,0.00,weatherlink.com 1.10,2013-02-02 10:33:00,
2013-02-02 02:48:00,34.1,29.0,30.48,NNE,19,0.0,2.0,80,0.00,,,0.00,weatherlink.com 1.10,2013-02-02 10:48:00,
2013-02-02 03:03:00,31.6,27.0,30.48,SE,143,2.0,3.0,82,0.00,,,0.00,weatherlink.com 1.10,2013-02-02 11:03:00,
2013-02-02 03:18:00,32.2,28.0,30.48,SE,142,0.0,1.0,85,0.00,,,0.00,weatherlink.com 1.10,2013-02-02 11:18:00,
2013-02-02 03:33:00,30.9,27.0,30.48,SE,142,0.0,1.0,84,0.00,,,0.00,weatherlink.com 1.10,2013-02-02 11:33:00,
2013-02-02 03:48:00,31.6,27.0,30.48,West,267,0.0,1.0,84,0.00,,,0.00,weatherlink.com 1.10,2013-02-02 11:48:00,
2013-02-02 04:03:00,31.5,27.0,30.48,SSE,155,0.0,3.0,83,0.00,,,0.00,weatherlink.com 1.10,2013-02-02 12:03:00,
2013-02-02 04:19:00,30.0,26.0,30.48,NW,323,0.0,1.0,86,0.00,,,0.00,weatherlink.com 1.10,2013-02-02 12:19:00,
2013-02-02 04:34:00,29.3,25.0,30.48,SE,141,1.0,2.0,85,0.00,,,0.00,weatherlink.com 1.10,2013-02-02 12:34:00,
2013-02-02 04:49:00,27.8,24.0,30.48,SE,139,0.0,3.0,87,0.00,,,0.00,weatherlink.com 1.10,2013-02-02 12:49:00,
2013-02-02 05:04:00,29.3,27.0,30.48,SSE,148,0.0,2.0,89,0.00,,,0.00,weatherlink.com 1.10,2013-02-02 13:04:00,
2013-02-02 05:19:00,30.4,27.0,30.48,North,5,1.0,1.0,86,0.00,,,0.00,weatherlink.com 1.10,2013-02-02 13:19:00,
2013-02-02 05:34:00,29.5,26.0,30.47,NE,54,2.0,2.0,86,0.00,,,0.00,weatherlink.com 1.10,2013-02-02 13:34:00,
2013-02-02 05:49:00,30.2,27.0,30.47,NNW,340,0.0,1.0,86,0.00,,,0.00,weatherlink.com 1.10,2013-02-02 13:49:00,
2013-02-02 06:04:00,30.3,26.0,30.47,WNW,288,0.0,1.0,85,0.00,,,0.00,weatherlink.com 1.10,2013-02-02 14:04:00,
2013-02-02 06:19:00,29.2,26.0,30.47,WNW,288,0.0,1.0,87,0.00,,,0.00,weatherlink.com 1.10,2013-02-02 14:19:00,
2013-02-02 06:34:00,28.7,26.0,30.47,SSW,195,0.0,1.0,88,0.00,,,0.00,weatherlink.com 1.10,2013-02-02 14:34:00,
2013-02-02 06:49:00,29.1,26.0,30.47,SSE,149,0.0,1.0,88,0.00,,,0.00,weatherlink.com 1.10,2013-02-02 14:49:00,
2013-02-02 07:04:00,29.4,26.0,30.47,North,357,1.0,2.0,87,0.00,,,0.00,weatherlink.com 1.10,2013-02-02 15:04:00,
2013-02-02 07:19:00,28.5,25.0,30.48,SE,139,0.0,2.0,85,0.00,,,0.00,weatherlink.com 1.10,2013-02-02 15:19:00,
2013-02-02 07:34:00,26.6,23.0,30.48,SE,140,0.0,0.0,87,0.00,,,0.00,weatherlink.com 1.10,2013-02-02 15:34:00,
2013-02-02 07:49:00,26.6,24.0,30.48,SSE,149,0.0,2.0,88,0.00,,,0.00,weatherlink.com 1.10,2013-02-02 15:49:00,
2013-02-02 08:04:00,27.1,24.0,30.48,SSE,149,0.0,1.0,88,0.00,,,0.00,weatherlink.com 1.10,2013-02-02 16:04:00,
2013-02-02 08:19:00,26.1,23.0,30.49,SSE,149,0.0,1.0,88,0.00,,,0.00,weatherlink.com 1.10,2013-02-02 16:19:00,
2013-02-02 08:34:00,26.1,23.0,30.49,SE,146,0.0,1.0,88,0.00,,,0.00,weatherlink.com 1.10,2013-02-02 16:34:00,
2013-02-02 08:49:00,26.8,24.0,30.49,SSE,153,1.0,2.0,88,0.00,,,0.00,weatherlink.com 1.10,2013-02-02 16:49:00,
2013-02-02 09:04:00,26.8,24.0,30.49,NNE,26,1.0,3.0,87,0.00,,,0.00,weatherlink.com 1.10,2013-02-02 17:04:00,
2013-02-02 09:19:00,26.8,24.0,30.49,North,11,0.0,1.0,87,0.00,,,0.00,weatherlink.com 1.10,2013-02-02 17:19:00,
2013-02-02 09:34:00,27.4,24.0,30.50,SW,228,0.0,2.0,87,0.00,,,0.00,weatherlink.com 1.10,2013-02-02 17:34:00,
2013-02-02 09:49:00,27.2,24.0,30.50,North,353,1.0,1.0,87,0.00,,,0.00,weatherlink.com 1.10,2013-02-02 17:49:00,
2013-02-02 10:04:00,27.7,25.0,30.49,NNW,339,1.0,4.0,88,0.00,,,0.00,weatherlink.com 1.10,2013-02-02 18:04:00,
2013-02-02 10:19:00,28.8,26.0,30.49,WNW,293,0.0,2.0,89,0.00,,,0.00,weatherlink.com 1.10,2013-02-02 18:19:00,
2013-02-02 10:34:00,28.7,26.0,30.49,SSW,202,0.0,1.0,88,0.00,,,0.00,weatherlink.com 1.10,2013-02-02 18:34:00,
2013-02-02 10:49:00,28.9,26.0,30.48,NNE,18,1.0,2.0,88,0.00,,,0.00,weatherlink.com 1.10,2013-02-02 18:49:00,
2013-02-02 11:04:00,29.5,26.0,30.48,NNW,334,1.0,2.0,88,0.00,,,0.00,weatherlink.com 1.10,2013-02-02 19:04:00,
2013-02-02 11:19:00,29.8,27.0,30.48,NNW,347,2.0,3.0,88,0.00,,,0.00,weatherlink.com 1.10,2013-02-02 19:19:00,
2013-02-02 11:34:00,29.7,27.0,30.48,West,259,0.0,1.0,88,0.00,,,0.00,weatherlink.com 1.10,2013-02-02 19:34:00,
2013-02-02 11:49:00,30.8,28.0,30.47,SSE,149,0.0,1.0,89,0.00,,,0.00,weatherlink.com 1.10,2013-02-02 19:49:00,
2013-02-02 12:04:00,30.8,28.0,30.46,NW,315,0.0,2.0,88,0.00,,,0.00,weatherlink.com 1.10,2013-02-02 20:04:00,
2013-02-02 12:19:00,30.3,27.0,30.46,West,280,0.0,2.0,88,0.00,,,0.00,weatherlink.com 1.10,2013-02-02 20:19:00,
2013-02-02 12:34:00,31.3,29.0,30.45,NW,315,0.0,2.0,89,0.00,,,0.00,weatherlink.com 1.10,2013-02-02 20:34:00,
2013-02-02 12:49:00,31.0,28.0,30.45,NW,319,2.0,3.0,88,0.00,,,0.00,weatherlink.com 1.10,2013-02-02 20:49:00,
2013-02-02 13:04:00,31.1,28.0,30.44,NNW,330,1.0,2.0,88,0.00,,,0.00,weatherlink.com 1.10,2013-02-02 21:04:00,
2013-02-02 13:19:00,31.5,29.0,30.43,NNE,20,2.0,2.0,89,0.00,,,0.00,weatherlink.com 1.10,2013-02-02 21:19:00,
2013-02-02 13:34:00,31.1,28.0,30.43,NNW,335,1.0,2.0,89,0.00,,,0.00,weatherlink.com 1.10,2013-02-02 21:34:00,
2013-02-02 13:49:00,31.3,29.0,30.43,West,278,0.0,2.0,89,0.00,,,0.00,weatherlink.com 1.10,2013-02-02 21:49:00,
2013-02-02 14:04:00,31.0,28.0,30.43,SE,146,1.0,3.0,89,0.00,,,0.00,weatherlink.com 1.10,2013-02-02 22:04:00,
2013-02-02 14:19:00,31.2,28.0,30.43,WNW,302,0.0,1.0,88,0.00,,,0.00,weatherlink.com 1.10,2013-02-02 22:19:00,
2013-02-02 14:34:00,31.4,29.0,30.43,SE,128,0.0,3.0,89,0.00,,,0.00,weatherlink.com 1.10,2013-02-02 22:34:00,
2013-02-02 14:49:00,32.0,29.0,30.42,SE,146,0.0,1.0,89,0.00,,,0.00,weatherlink.com 1.10,2013-02-02 22:49:00,
2013-02-02 15:04:00,32.1,29.0,30.41,NW,323,0.0,3.0,89,0.00,,,0.00,weatherlink.com 1.10,2013-02-02 23:04:00,
2013-02-02 15:19:00,31.7,29.0,30.41,WNW,287,0.0,1.0,88,0.00,,,0.00,weatherlink.com 1.10,2013-02-02 23:19:00,
2013-02-02 15:34:00,32.0,29.0,30.41,SE,141,1.0,3.0,89,0.00,,,0.00,weatherlink.com 1.10,2013-02-02 23:34:00,
2013-02-02 15:49:00,31.8,29.0,30.41,SE,135,0.0,1.0,89,0.00,,,0.00,weatherlink.com 1.10,2013-02-02 23:49:00,
2013-02-02 16:04:00,35.2,33.0,30.40,West,266,1.0,2.0,90,0.00,,,0.00,weatherlink.com 1.10,2013-02-03 00:04:00,
2013-02-02 16:19:00,31.3,28.0,30.39,SE,146,3.0,3.0,86,0.00,,,0.00,weatherlink.com 1.10,2013-02-03 00:19:00,
2013-02-02 16:34:00,29.8,27.0,30.39,SE,136,1.0,2.0,88,0.00,,,0.00,weatherlink.com 1.10,2013-02-03 00:34:00,
2013-02-02 16:49:00,28.8,26.0,30.38,ESE,107,1.0,1.0,88,0.00,,,0.00,weatherlink.com 1.10,2013-02-03 00:49:00,
2013-02-02 17:04:00,28.3,26.0,30.38,East,84,0.0,2.0,89,0.00,,,0.00,weatherlink.com 1.10,2013-02-03 01:04:00,
2013-02-02 17:20:00,27.4,25.0,30.38,SE,142,2.0,2.0,89,0.00,,,0.00,weatherlink.com 1.10,2013-02-03 01:20:00,
2013-02-02 17:35:00,28.3,26.0,30.38,West,274,0.0,1.0,89,0.00,,,0.00,weatherlink.com 1.10,2013-02-03 01:35:00,
2013-02-02 17:50:00,28.5,26.0,30.37,NE,39,0.0,1.0,89,0.00,,,0.00,weatherlink.com 1.10,2013-02-03 01:50:00,
2013-02-02 18:05:00,31.7,29.0,30.36,SSW,200,1.0,1.0,90,0.00,,,0.00,weatherlink.com 1.10,2013-02-03 02:05:00,
2013-02-02 18:20:00,29.3,27.0,30.35,SE,134,0.0,3.0,89,0.00,,,0.00,weatherlink.com 1.10,2013-02-03 02:20:00,
2013-02-02 18:35:00,30.1,27.0,30.35,NNE,30,0.0,1.0,89,0.00,,,0.00,weatherlink.com 1.10,2013-02-03 02:35:00,
2013-02-02 18:50:00,28.1,25.0,30.34,SE,142,2.0,4.0,87,0.00,,,0.00,weatherlink.com 1.10,2013-02-03 02:50:00,
2013-02-02 19:05:00,27.6,25.0,30.33,East,94,0.0,3.0,89,0.00,,,0.00,weatherlink.com 1.10,2013-02-03 03:05:00,
2013-02-02 19:20:00,29.5,27.0,30.33,SE,132,0.0,2.0,90,0.00,,,0.00,weatherlink.com 1.10,2013-02-03 03:20:00,
2013-02-02 19:35:00,29.6,27.0,30.32,West,269,0.0,1.0,90,0.00,,,0.00,weatherlink.com 1.10,2013-02-03 03:35:00,
2013-02-02 19:50:00,28.1,25.0,30.32,SSE,155,0.0,3.0,89,0.00,,,0.00,weatherlink.com 1.10,2013-02-03 03:50:00,
2013-02-02 20:05:00,28.2,25.0,30.32,SE,134,0.0,2.0,89,0.00,,,0.00,weatherlink.com 1.10,2013-02-03 04:05:00,
2013-02-02 20:20:00,28.2,25.0,30.32,SSE,150,1.0,1.0,89,0.00,,,0.00,weatherlink.com 1.10,2013-02-03 04:20:00,
2013-02-02 20:35:00,29.0,27.0,30.31,SSE,155,0.0,1.0,90,0.00,,,0.00,weatherlink.com 1.10,2013-02-03 04:35:00,
2013-02-02 20:50:00,30.4,28.0,30.30,WSW,239,1.0,3.0,90,0.00,,,0.00,weatherlink.com 1.10,2013-02-03 04:50:00,
2013-02-02 21:05:00,28.5,26.0,30.31,SE,139,1.0,8.0,89,0.00,,,0.00,weatherlink.com 1.10,2013-02-03 05:05:00,
2013-02-02 21:20:00,27.8,25.0,30.31,North,357,1.0,4.0,89,0.00,,,0.00,weatherlink.com 1.10,2013-02-03 05:20:00,
2013-02-02 21:35:00,29.1,26.0,30.30,SW,224,0.0,2.0,89,0.00,,,0.00,weatherlink.com 1.10,2013-02-03 05:35:00,
2013-02-02 21:50:00,28.1,25.0,30.30,SW,224,0.0,1.0,89,0.00,,,0.00,weatherlink.com 1.10,2013-02-03 05:50:00,
2013-02-02 22:05:00,26.4,23.0,30.31,SSE,148,2.0,2.0,88,0.00,,,0.00,weatherlink.com 1.10,2013-02-03 06:05:00,
2013-02-02 22:20:00,26.6,24.0,30.31,NNE,33,1.0,1.0,89,0.00,,,0.00,weatherlink.com 1.10,2013-02-03 06:20:00,
2013-02-02 22:35:00,26.8,24.0,30.30,SE,146,0.0,4.0,89,0.00,,,0.00,weatherlink.com 1.10,2013-02-03 06:35:00,
2013-02-02 22:50:00,30.2,28.0,30.30,North,354,0.0,1.0,90,0.00,,,0.00,weatherlink.com 1.10,2013-02-03 06:50:00,
2013-02-02 23:05:00,27.8,25.0,30.29,SE,144,4.0,4.0,89,0.00,,,0.00,weatherlink.com 1.10,2013-02-03 07:05:00,
2013-02-02 23:20:00,30.8,28.0,30.28,SE,139,0.0,1.0,90,0.00,,,0.00,weatherlink.com 1.10,2013-02-03 07:20:00,
2013-02-02 23:35:00,29.0,25.0,30.29,East,98,1.0,4.0,85,0.00,,,0.00,weatherlink.com 1.10,2013-02-03 07:35:00,
2013-02-02 23:50:00,25.8,23.0,30.29,SSE,155,0.0,3.0,87,0.00,,,0.00,weatherlink.com 1.10,2013-02-03 07:50:00,